createdAt,value
2018-07-27T00:04:32.822Z,4.6
2018-07-27T00:09:35.070Z,5.2
2018-07-27T00:14:37.390Z,8
2018-07-27T00:19:39.613Z,4.9
2018-07-27T00:24:41.913Z,7.9
2018-07-27T00:34:46.612Z,7.7
2018-07-27T00:39:48.809Z,9.2
2018-07-27T00:44:51.177Z,11.3
2018-07-27T00:49:53.432Z,5.7
2018-07-27T00:54:55.927Z,9.7
2018-07-27T00:59:57.974Z,9.7
2018-07-27T01:05:00.360Z,9.8
2018-07-27T01:10:02.579Z,8.3
2018-07-27T01:15:04.987Z,7
2018-07-27T01:20:07.220Z,8.7
2018-07-27T01:25:09.492Z,9.6
2018-07-27T01:30:11.704Z,8.2
2018-07-27T01:35:14.067Z,5.4
2018-07-27T01:40:16.346Z,12.1
2018-07-27T01:45:18.724Z,8.2
2018-07-27T01:50:21.051Z,7.4
2018-07-27T01:55:23.281Z,4.9
2018-07-27T02:00:25.495Z,8.1
2018-07-27T02:05:27.890Z,7.1
2018-07-27T02:10:30.174Z,6.8
2018-07-27T02:15:32.421Z,9.2
2018-07-27T02:20:34.688Z,8
2018-07-27T02:25:36.959Z,9
2018-07-27T02:30:39.289Z,6.1
2018-07-27T02:35:41.581Z,10.4
2018-07-27T02:40:43.932Z,11.4
2018-07-27T02:45:46.250Z,11.2
2018-07-27T02:50:48.538Z,9
2018-07-27T02:55:50.724Z,11.4
2018-07-27T03:00:53.117Z,10.9
2018-07-27T03:05:57.368Z,14.5
2018-07-27T03:10:57.708Z,14.4
2018-07-27T03:15:59.955Z,11.8
2018-07-27T03:21:02.204Z,10.9
2018-07-27T03:26:04.586Z,12.1
2018-07-27T03:31:06.832Z,13.3
2018-07-27T03:36:09.131Z,13
2018-07-27T03:41:11.492Z,12.9
2018-07-27T03:46:14.037Z,12.5
2018-07-27T03:51:16.092Z,10.9
2018-07-27T03:56:18.225Z,11
2018-07-27T04:01:20.659Z,11.2
2018-07-27T04:06:23.062Z,12.1
2018-07-27T04:11:25.346Z,9.1
2018-07-27T04:21:29.777Z,5.9
2018-07-27T04:26:32.095Z,10.6
2018-07-27T04:31:34.438Z,10
2018-07-27T04:36:36.632Z,10
2018-07-27T04:41:39.058Z,6.4
2018-07-27T04:46:41.257Z,6.4
2018-07-27T04:51:43.859Z,6.9
2018-07-27T04:56:45.815Z,7.3
2018-07-27T05:01:48.151Z,8.6
2018-07-27T05:06:50.496Z,5.3
2018-07-27T05:11:52.770Z,6.9
2018-07-27T05:16:55.077Z,6.9
2018-07-27T05:21:57.407Z,8.1
2018-07-27T05:26:59.693Z,7.7
2018-07-27T05:32:01.990Z,7.5
2018-07-27T05:37:04.229Z,8.7
2018-07-27T05:42:06.468Z,9.4
2018-07-27T05:47:08.809Z,10.8
2018-07-27T05:52:11.074Z,9.4
2018-07-27T05:57:13.465Z,6.5
2018-07-27T06:02:15.763Z,7.1
2018-07-27T06:12:20.279Z,7.5
2018-07-27T06:17:22.567Z,6.8
2018-07-27T06:22:24.850Z,5.4
2018-07-27T06:27:27.268Z,4.9
2018-07-27T06:32:29.412Z,6.9
2018-07-27T06:37:31.847Z,7
2018-07-27T06:42:33.975Z,6.6
2018-07-27T06:47:36.343Z,5.4
2018-07-27T06:52:38.741Z,4.7
2018-07-27T06:57:41.046Z,3.9
2018-07-27T07:07:45.541Z,4.6
2018-07-27T07:12:47.890Z,4.8
2018-07-27T07:17:49.992Z,3
2018-07-27T07:22:52.438Z,4
2018-07-27T07:27:55.105Z,3.5
2018-07-27T07:32:56.980Z,6.5
2018-07-27T07:37:59.217Z,4.5
2018-07-27T07:43:01.621Z,3.5
2018-07-27T07:48:03.835Z,5.3
2018-07-27T07:53:06.523Z,6.7
2018-07-27T07:58:08.440Z,4.1
2018-07-27T08:03:10.786Z,3.6
2018-07-27T08:08:13.098Z,4.6
2018-07-27T08:13:15.372Z,4.7
2018-07-27T08:18:17.695Z,3.3
2018-07-27T08:23:20.052Z,3.2
2018-07-27T08:28:22.250Z,3.7
2018-07-27T08:33:24.577Z,3.6
2018-07-27T08:38:26.811Z,3.6
2018-07-27T08:43:29.066Z,2.7
2018-07-27T08:48:31.508Z,3.8
2018-07-27T08:53:33.840Z,3.8
2018-07-27T09:03:38.290Z,3.7
2018-07-27T09:08:40.633Z,5.5
2018-07-27T09:13:42.932Z,2.9
2018-07-27T09:18:45.214Z,4.3
2018-07-27T09:23:47.469Z,3
2018-07-27T09:28:49.759Z,3.4
2018-07-27T09:33:52.041Z,3.3
2018-07-27T09:38:54.429Z,4.2
2018-07-27T09:43:56.740Z,4.5
2018-07-27T09:48:59.032Z,2.6
2018-07-27T09:54:01.225Z,3.2
2018-07-27T09:59:03.505Z,1.6
2018-07-27T10:09:08.116Z,2.5
2018-07-27T10:14:10.324Z,2
2018-07-27T10:19:12.758Z,1.9
2018-07-27T10:24:15.243Z,2.5
2018-07-27T10:29:17.320Z,2
2018-07-27T10:34:19.611Z,2.2
2018-07-27T10:39:21.849Z,1.9
2018-07-27T10:44:24.243Z,3
2018-07-27T10:49:26.456Z,2.9
2018-07-27T10:59:45.901Z,2.4
2018-07-27T11:04:48.310Z,2
2018-07-27T11:09:50.592Z,1.4
2018-07-27T11:14:52.945Z,2.5
2018-07-27T11:19:55.217Z,1.4
2018-07-27T11:24:57.452Z,1.7
2018-07-27T11:29:59.667Z,1.1
2018-07-27T11:35:02.042Z,3.1
2018-07-27T11:40:04.346Z,1.6
2018-07-27T11:50:08.831Z,1.3
2018-07-27T11:55:11.242Z,2.1
2018-07-27T12:00:13.526Z,1.7
2018-07-27T12:05:15.779Z,1.1
2018-07-27T12:10:18.128Z,2.6
2018-07-27T12:15:20.635Z,2.3
2018-07-27T12:20:22.730Z,2.3
2018-07-27T12:25:25.106Z,1.7
2018-07-27T12:30:27.302Z,1.7
2018-07-27T12:35:29.578Z,1.9
2018-07-27T12:40:31.841Z,1.8
2018-07-27T12:45:34.232Z,1.6
2018-07-27T12:50:36.556Z,1.5
2018-07-27T12:55:38.748Z,1.8
2018-07-27T13:00:41.075Z,2.5
2018-07-27T13:05:43.345Z,2.1
2018-07-27T13:10:45.633Z,2.7
2018-07-27T13:15:47.966Z,1.5
2018-07-27T13:20:50.222Z,2.4
2018-07-27T13:26:52.558Z,1.1
2018-07-27T13:30:54.790Z,1.7
2018-07-27T13:35:57.190Z,1.2
2018-07-27T13:40:59.356Z,2
2018-07-27T13:51:03.957Z,1.8
2018-07-27T13:56:06.353Z,2
2018-07-27T14:01:08.619Z,1.8
2018-07-27T14:06:10.973Z,2.4
2018-07-27T14:11:13.157Z,2.8
2018-07-27T14:16:15.617Z,1.8
2018-07-27T14:21:17.780Z,1.1
2018-07-27T14:26:20.039Z,1.3
2018-07-27T14:31:22.294Z,2.1
2018-07-27T14:36:24.651Z,1.3
2018-07-27T14:41:26.982Z,1.8
2018-07-27T14:46:29.245Z,2.8
2018-07-27T14:51:31.497Z,2.4
2018-07-27T14:56:33.831Z,1.9
2018-07-27T15:01:36.176Z,2.4
2018-07-27T15:06:38.425Z,2.5
2018-07-27T15:11:40.837Z,2.2
2018-07-27T15:16:43.046Z,2.2
2018-07-27T15:21:45.252Z,1.9
2018-07-27T15:26:47.618Z,2.1
2018-07-27T15:31:49.971Z,2
2018-07-27T15:36:52.216Z,2.8
2018-07-27T15:41:54.516Z,1.9
2018-07-27T15:46:56.814Z,2.4
2018-07-27T15:51:59.096Z,2.1
2018-07-27T15:57:01.475Z,2.8
2018-07-27T16:02:03.614Z,1.8
2018-07-27T16:07:06.040Z,2
2018-07-27T16:12:08.361Z,1.8
2018-07-27T16:17:10.729Z,2.6
2018-07-27T16:22:12.847Z,2.2
2018-07-27T16:27:15.097Z,1.5
2018-07-27T16:32:17.534Z,2.4
2018-07-27T16:37:19.817Z,1.9
2018-07-27T16:42:22.007Z,3.1
2018-07-27T16:47:24.308Z,2
2018-07-27T16:52:26.772Z,1.5
2018-07-27T16:57:28.858Z,1.8
2018-07-27T17:02:31.399Z,0.8
2018-07-27T17:07:33.579Z,2.3
2018-07-27T17:12:35.720Z,4.1
2018-07-27T17:17:38.188Z,2.3
2018-07-27T17:22:40.389Z,2.2
2018-07-27T17:27:42.748Z,2
2018-07-27T17:32:44.946Z,2.4
2018-07-27T17:37:47.203Z,2.7
2018-07-27T17:42:49.710Z,1.8
2018-07-27T17:47:51.898Z,3.7
2018-07-27T17:52:54.181Z,2.2
2018-07-27T17:57:56.402Z,2.2
2018-07-27T18:02:58.727Z,2.3
2018-07-27T18:08:01.074Z,3.4
2018-07-27T18:13:03.647Z,1.8
2018-07-27T18:18:05.721Z,4
2018-07-27T18:23:07.837Z,2.1
2018-07-27T18:28:10.246Z,2.4
2018-07-27T18:33:12.509Z,2.5
2018-07-27T18:38:14.830Z,3.2
2018-07-27T18:43:17.026Z,2.8
2018-07-27T18:48:19.448Z,2.6
2018-07-27T18:53:21.858Z,3.3
2018-07-27T18:58:24.080Z,2.2
2018-07-27T19:03:26.322Z,3.1
2018-07-27T19:08:28.700Z,2.6
2018-07-27T19:13:30.953Z,3.9
2018-07-27T19:18:33.189Z,2.9
2018-07-27T19:23:35.574Z,4.9
2018-07-27T19:28:37.802Z,2.5
2018-07-27T19:33:40.203Z,3.1
2018-07-27T19:38:42.387Z,2.1
2018-07-27T19:43:50.647Z,2.4
2018-07-27T19:48:46.948Z,2.4
2018-07-27T19:53:49.251Z,2.2
2018-07-27T19:58:51.495Z,3.7
2018-07-27T20:03:53.795Z,3.7
2018-07-27T20:08:56.150Z,2.6
2018-07-27T20:13:58.403Z,2.3
2018-07-27T20:19:00.751Z,2
2018-07-27T20:24:03.011Z,3.4
2018-07-27T20:29:05.289Z,2.8
2018-07-27T20:34:07.583Z,2.9
2018-07-27T20:39:10.035Z,2.6
2018-07-27T20:44:12.207Z,5.3
2018-07-27T20:49:14.435Z,2.7
2018-07-27T20:54:16.808Z,2.5
2018-07-27T20:59:19.083Z,2.5
2018-07-27T21:04:21.526Z,3
2018-07-27T21:09:23.796Z,5
2018-07-27T21:14:26.016Z,5.7
2018-07-27T21:19:28.505Z,4.8
2018-07-27T21:24:30.509Z,5.4
2018-07-27T21:29:33.019Z,3.2
2018-07-27T21:34:35.035Z,3.4
2018-07-27T21:39:37.458Z,3.9
2018-07-27T21:44:39.751Z,2.8
2018-07-27T21:49:41.890Z,3.2
2018-07-27T21:54:44.414Z,3.3
2018-07-27T21:59:46.572Z,3.6
2018-07-27T22:04:49.121Z,2.9
2018-07-27T22:09:51.150Z,2.4
2018-07-27T22:14:53.485Z,3.9
2018-07-27T22:19:55.822Z,2.2
2018-07-27T22:24:58.138Z,3.1
2018-07-27T22:30:00.413Z,2.9
2018-07-27T22:35:02.619Z,3
2018-07-27T22:40:04.903Z,4.1
2018-07-27T22:45:07.239Z,2.1
2018-07-27T22:50:09.481Z,4
2018-07-27T22:55:13.032Z,2.7
2018-07-27T23:00:14.210Z,2.8
2018-07-27T23:05:16.457Z,2.7
2018-07-27T23:10:18.744Z,4.5
2018-07-27T23:15:20.908Z,2.6
2018-07-27T23:20:23.437Z,4
2018-07-27T23:25:25.755Z,2.1
2018-07-27T23:30:28.090Z,3.3
2018-07-27T23:35:30.187Z,4.1
2018-07-27T23:40:32.515Z,3.3
2018-07-27T23:45:34.788Z,3.6
2018-07-27T23:50:36.973Z,4.2
2018-07-27T23:55:39.668Z,3.9
